createdAt,value
2019-02-23T00:01:30.988Z,102618.98
2019-02-23T00:03:56.877Z,102613.74
2019-02-23T00:06:29.927Z,102615.48
2019-02-23T00:08:50.612Z,102607.17
2019-02-23T00:11:16.754Z,102607.59
2019-02-23T00:13:42.681Z,102602.77
2019-02-23T00:16:08.810Z,102594.46
2019-02-23T00:18:34.683Z,102598.82
2019-02-23T00:21:00.557Z,102623.37
2019-02-23T00:23:26.684Z,102635.62
2019-02-23T00:25:52.555Z,102624.28
2019-02-23T00:28:18.549Z,102611.59
2019-02-23T00:30:44.490Z,102594.94
2019-02-23T00:33:10.452Z,102593.63
2019-02-23T00:35:36.469Z,102586.22
2019-02-23T00:38:02.608Z,102533.85
2019-02-23T00:40:28.486Z,102572.60
2019-02-23T00:42:54.557Z,102575.67
2019-02-23T00:45:20.560Z,102559.43
2019-02-23T00:47:46.402Z,102555.95
2019-02-23T00:50:12.249Z,102553.31
2019-02-23T00:52:38.388Z,102563.81
2019-02-23T00:55:04.954Z,102575.20
2019-02-23T00:57:30.942Z,102563.88
2019-02-23T00:59:56.858Z,102568.27
2019-02-23T01:02:22.732Z,102544.19
2019-02-23T01:04:51.264Z,102542.45
2019-02-23T01:07:17.262Z,102544.23
2019-02-23T01:09:43.207Z,102536.34
2019-02-23T01:12:09.512Z,102538.08
2019-02-23T01:14:35.565Z,102536.77
2019-02-23T01:17:01.535Z,102522.34
2019-02-23T01:19:27.536Z,102528.91
2019-02-23T01:21:53.584Z,102531.11
2019-02-23T01:24:19.433Z,102523.23
2019-02-23T01:26:45.338Z,102503.05
2019-02-23T01:29:11.517Z,102499.10
2019-02-23T01:31:37.350Z,102500.00
2019-02-23T01:34:03.341Z,102509.62
2019-02-23T01:36:29.419Z,102524.94
2019-02-23T01:38:55.272Z,102531.06
2019-02-23T01:41:21.169Z,102517.02
2019-02-23T01:43:47.238Z,102515.27
2019-02-23T01:46:13.065Z,102522.69
2019-02-23T01:48:38.949Z,102499.50
2019-02-23T01:51:04.999Z,102508.23
2019-02-23T01:53:30.979Z,102507.39
2019-02-23T01:55:56.958Z,102519.21
2019-02-23T01:58:22.980Z,102512.63
2019-02-23T02:00:48.937Z,102492.47
2019-02-23T02:03:15.038Z,102485.03
2019-02-23T02:05:41.083Z,102493.35
2019-02-23T02:08:06.927Z,102502.13
2019-02-23T02:10:32.834Z,102478.91
2019-02-23T02:12:58.839Z,102452.64
2019-02-23T02:15:24.826Z,102454.39
2019-02-23T02:17:50.823Z,102445.20
2019-02-23T02:20:16.854Z,102454.88
2019-02-23T02:22:42.841Z,102430.34
2019-02-23T02:25:08.796Z,102443.08
2019-02-23T02:27:34.846Z,102437.83
2019-02-23T02:30:00.852Z,102457.55
2019-02-23T02:32:26.832Z,102462.80
2019-02-23T02:34:52.790Z,102473.75
2019-02-23T02:37:18.707Z,102483.40
2019-02-23T02:39:44.707Z,102497.39
2019-02-23T02:42:10.780Z,102491.72
2019-02-23T02:44:36.664Z,102498.28
2019-02-23T02:47:02.606Z,102445.97
2019-02-23T02:49:28.587Z,102487.33
2019-02-23T02:51:54.490Z,102482.09
2019-02-23T02:54:20.390Z,102490.83
2019-02-23T02:56:46.417Z,102499.17
2019-02-23T02:59:12.273Z,102499.17
2019-02-23T03:01:38.239Z,102513.61
2019-02-23T03:04:04.380Z,102516.66
2019-02-23T03:06:30.302Z,102509.61
2019-02-23T03:08:56.150Z,102507.44
2019-02-23T03:11:22.191Z,102500.80
2019-02-23T03:13:48.191Z,102506.55
2019-02-23T03:16:14.150Z,102496.94
2019-02-23T03:18:40.135Z,102480.27
2019-02-23T03:21:06.004Z,102465.38
2019-02-23T03:23:31.913Z,102463.60
2019-02-23T03:25:57.929Z,102468.01
2019-02-23T03:28:23.810Z,102459.67
2019-02-23T03:30:49.658Z,102468.88
2019-02-23T03:33:15.808Z,102470.66
2019-02-23T03:35:41.700Z,102471.57
2019-02-23T03:38:07.640Z,102450.09
2019-02-23T03:40:33.605Z,102448.78
2019-02-23T03:42:59.492Z,102432.16
2019-02-23T03:45:25.488Z,102422.97
2019-02-23T03:47:51.524Z,102414.62
2019-02-23T03:50:17.431Z,102412.89
2019-02-23T03:52:43.285Z,102407.62
2019-02-23T03:55:09.307Z,102404.58
2019-02-23T03:57:35.313Z,102418.14
2019-02-23T04:00:01.286Z,102422.52
2019-02-23T04:02:27.312Z,102437.86
2019-02-23T04:04:53.238Z,102436.13
2019-02-23T04:07:19.190Z,102429.58
2019-02-23T04:09:45.217Z,102415.55
2019-02-23T04:12:11.086Z,102428.27
2019-02-23T04:14:37.118Z,102398.38
2019-02-23T04:17:03.190Z,102445.81
2019-02-23T04:19:29.051Z,102460.70
2019-02-23T04:21:54.920Z,102457.66
2019-02-23T04:24:20.953Z,102445.42
2019-02-23T04:26:48.762Z,102440.59
2019-02-23T04:29:14.631Z,102430.49
2019-02-23T04:31:40.665Z,102428.75
2019-02-23T04:34:06.530Z,102430.07
2019-02-23T04:36:32.550Z,102432.27
2019-02-23T04:38:58.639Z,102427.88
2019-02-23T04:41:24.592Z,102444.55
2019-02-23T04:43:50.471Z,102452.45
2019-02-23T04:46:16.413Z,102461.23
2019-02-23T04:48:42.281Z,102473.05
2019-02-23T04:51:14.448Z,102473.94
2019-02-23T04:53:35.982Z,102459.00
2019-02-23T04:56:01.836Z,102458.99
2019-02-23T04:58:27.689Z,102454.63
2019-02-23T05:00:53.669Z,102473.02
2019-02-23T05:03:19.640Z,102474.33
2019-02-23T05:05:45.706Z,102466.44
2019-02-23T05:08:11.852Z,102460.72
2019-02-23T05:10:37.738Z,102468.61
2019-02-23T05:13:03.616Z,102465.98
2019-02-23T05:15:29.676Z,102457.23
2019-02-23T05:17:55.660Z,102463.79
2019-02-23T05:20:21.508Z,102464.63
2019-02-23T05:22:47.488Z,102472.97
2019-02-23T05:25:13.432Z,102469.84
2019-02-23T05:27:39.278Z,102473.36
2019-02-23T05:30:06.825Z,102475.97
2019-02-23T05:32:32.717Z,102478.17
2019-02-23T05:34:58.589Z,102475.97
2019-02-23T05:37:24.642Z,102454.95
2019-02-23T05:39:50.501Z,102444.88
2019-02-23T05:42:16.375Z,102457.17
2019-02-23T05:44:42.434Z,102450.59
2019-02-23T05:47:08.406Z,102449.70
2019-02-23T05:49:36.859Z,102442.24
2019-02-23T05:52:02.370Z,102454.95
2019-02-23T05:54:28.201Z,102458.89
2019-02-23T05:56:54.103Z,102454.06
2019-02-23T05:59:20.049Z,102474.67
2019-02-23T06:01:45.943Z,102479.96
2019-02-23T06:04:11.824Z,102504.08
2019-02-23T06:06:37.851Z,102511.55
2019-02-23T06:09:04.158Z,102517.72
2019-02-23T06:11:30.010Z,102517.74
2019-02-23T06:13:56.066Z,102527.39
2019-02-23T06:16:22.073Z,102514.73
2019-02-23T06:18:48.011Z,102510.34
2019-02-23T06:21:14.024Z,102505.55
2019-02-23T06:23:39.900Z,102488.89
2019-02-23T06:26:05.908Z,102495.48
2019-02-23T06:28:31.995Z,102477.50
2019-02-23T06:30:57.838Z,102493.75
2019-02-23T06:33:23.710Z,102488.92
2019-02-23T06:35:49.673Z,102491.58
2019-02-23T06:38:15.561Z,102500.37
2019-02-23T06:40:41.444Z,102506.08
2019-02-23T06:43:07.515Z,102501.28
2019-02-23T06:45:33.464Z,102500.41
2019-02-23T06:47:59.352Z,102502.16
2019-02-23T06:50:25.385Z,102501.31
2019-02-23T06:52:51.259Z,102502.63
2019-02-23T06:55:17.142Z,102497.81
2019-02-23T06:57:43.218Z,102500.87
2019-02-23T07:00:10.984Z,102508.78
2019-02-23T07:02:36.975Z,102518.45
2019-02-23T07:05:03.123Z,102528.11
2019-02-23T07:07:29.013Z,102530.73
2019-02-23T07:09:55.248Z,102529.42
2019-02-23T07:12:21.593Z,102516.73
2019-02-23T07:14:47.491Z,102507.52
2019-02-23T07:17:13.515Z,102509.70
2019-02-23T07:19:39.634Z,102506.22
2019-02-23T07:22:15.033Z,102500.50
2019-02-23T07:24:33.191Z,102511.04
2019-02-23T07:26:59.209Z,102507.10
2019-02-23T07:29:25.101Z,102514.58
2019-02-23T07:31:51.088Z,102526.00
2019-02-23T07:34:17.100Z,102521.60
2019-02-23T07:36:42.994Z,102523.81
2019-02-23T07:39:09.093Z,102522.50
2019-02-23T07:41:35.097Z,102525.14
2019-02-23T07:44:03.330Z,102522.97
2019-02-23T07:46:28.643Z,102533.52
2019-02-23T07:48:54.795Z,102536.16
2019-02-23T07:51:20.650Z,102543.17
2019-02-23T07:53:46.653Z,102541.86
2019-02-23T07:56:12.672Z,102545.38
2019-02-23T07:58:38.629Z,102551.55
2019-02-23T08:01:04.526Z,102568.21
2019-02-23T08:03:30.462Z,102572.17
2019-02-23T08:05:56.310Z,102573.06
2019-02-23T08:08:22.198Z,102580.54
2019-02-23T08:10:48.220Z,102585.35
2019-02-23T08:13:14.072Z,102597.22
2019-02-23T08:15:39.944Z,102587.98
2019-02-23T08:18:05.949Z,102605.59
2019-02-23T08:20:31.829Z,102612.61
2019-02-23T08:22:57.815Z,102629.31
2019-02-23T08:25:23.786Z,102631.95
2019-02-23T08:27:49.644Z,102631.06
2019-02-23T08:30:15.877Z,102619.20
2019-02-23T08:32:42.012Z,102617.45
2019-02-23T08:35:07.986Z,102622.30
2019-02-23T08:37:33.945Z,102620.98
2019-02-23T08:40:00.226Z,102631.53
2019-02-23T08:42:26.090Z,102624.50
2019-02-23T08:44:52.212Z,102624.50
2019-02-23T08:47:21.075Z,102639.01
2019-02-23T08:49:46.956Z,102626.67
2019-02-23T08:52:12.945Z,102634.58
2019-02-23T08:54:38.952Z,102637.22
2019-02-23T08:57:04.856Z,102632.40
2019-02-23T08:59:30.703Z,102627.55
2019-02-23T09:01:56.670Z,102631.92
2019-02-23T09:04:22.863Z,102640.30
2019-02-23T09:06:48.839Z,102631.95
2019-02-23T09:09:14.763Z,102628.84
2019-02-23T09:11:40.721Z,102631.47
2019-02-23T09:14:06.642Z,102635.42
2019-02-23T09:16:32.596Z,102638.52
2019-02-23T09:18:58.450Z,102637.62
2019-02-23T09:21:24.364Z,102642.88
2019-02-23T09:23:50.446Z,102649.91
2019-02-23T09:26:16.328Z,102646.83
2019-02-23T09:28:42.205Z,102639.79
2019-02-23T09:31:08.257Z,102634.50
2019-02-23T09:33:34.512Z,102626.14
2019-02-23T09:36:00.515Z,102623.48
2019-02-23T09:38:26.541Z,102619.95
2019-02-23T09:40:52.433Z,102619.50
2019-02-23T09:43:18.320Z,102626.52
2019-02-23T09:45:44.285Z,102626.50
2019-02-23T09:48:10.145Z,102624.73
2019-02-23T09:50:36.018Z,102635.27
2019-02-23T09:53:10.779Z,102637.47
2019-02-23T09:55:30.085Z,102652.84
2019-02-23T09:57:55.935Z,102648.87
2019-02-23T10:00:21.900Z,102644.45
2019-02-23T10:02:47.759Z,102643.11
2019-02-23T10:05:15.136Z,102635.17
2019-02-23T10:07:41.176Z,102621.05
2019-02-23T10:10:08.146Z,102615.30
2019-02-23T10:12:34.053Z,102600.33
2019-02-23T10:15:00.004Z,102596.34
2019-02-23T10:17:25.960Z,102594.12
2019-02-23T10:19:51.865Z,102606.88
2019-02-23T10:22:17.804Z,102606.87
2019-02-23T10:24:43.767Z,102601.14
2019-02-23T10:27:09.651Z,102604.20
2019-02-23T10:29:35.615Z,102612.53
2019-02-23T10:32:01.560Z,102621.36
2019-02-23T10:34:27.528Z,102620.95
2019-02-23T10:36:53.483Z,102629.70
2019-02-23T10:39:19.341Z,102629.26
2019-02-23T10:41:45.228Z,102627.93
2019-02-23T10:44:11.200Z,102637.17
2019-02-23T10:46:37.067Z,102641.56
2019-02-23T10:49:03.050Z,102652.58
2019-02-23T10:51:29.002Z,102645.50
2019-02-23T10:53:54.880Z,102640.20
2019-02-23T10:56:20.778Z,102647.70
2019-02-23T10:58:46.890Z,102649.02
2019-02-23T11:01:12.728Z,102658.73
2019-02-23T11:03:38.731Z,102657.40
2019-02-23T11:06:05.510Z,102665.34
2019-02-23T11:08:31.479Z,102663.53
2019-02-23T11:10:57.338Z,102653.84
2019-02-23T11:13:23.417Z,102650.30
2019-02-23T11:15:49.309Z,102654.71
2019-02-23T11:18:15.374Z,102652.48
2019-02-23T11:20:41.595Z,102652.47
2019-02-23T11:23:07.579Z,102644.53
2019-02-23T11:25:33.510Z,102643.20
2019-02-23T11:27:59.685Z,102643.17
2019-02-23T11:30:25.632Z,102638.77
2019-02-23T11:32:51.575Z,102644.91
2019-02-23T11:35:18.000Z,102651.50
2019-02-23T11:37:43.912Z,102653.27
2019-02-23T11:40:10.466Z,102662.50
2019-02-23T11:42:36.619Z,102662.02
2019-02-23T11:45:02.703Z,102646.60
2019-02-23T11:47:28.596Z,102641.30
2019-02-23T11:49:54.852Z,102639.55
2019-02-23T11:52:21.080Z,102638.22
2019-02-23T11:54:46.962Z,102640.39
2019-02-23T11:57:13.040Z,102650.56
2019-02-23T11:59:38.941Z,102637.33
2019-02-23T12:02:04.928Z,102640.84
2019-02-23T12:04:30.955Z,102644.34
2019-02-23T12:06:56.862Z,102638.19
2019-02-23T12:09:22.712Z,102645.23
2019-02-23T12:11:48.844Z,102644.31
2019-02-23T12:14:14.761Z,102643.43
2019-02-23T12:16:40.615Z,102644.73
2019-02-23T12:19:06.645Z,102638.96
2019-02-23T12:21:32.668Z,102633.66
2019-02-23T12:24:05.630Z,102627.93
2019-02-23T12:26:26.601Z,102623.52
2019-02-23T12:28:52.477Z,102629.66
2019-02-23T12:31:18.320Z,102627.90
2019-02-23T12:33:44.301Z,102590.61
2019-02-23T12:36:10.268Z,102633.61
2019-02-23T12:38:36.251Z,102632.27
2019-02-23T12:41:02.379Z,102639.31
2019-02-23T12:43:28.268Z,102645.05
2019-02-23T12:45:54.282Z,102640.63
2019-02-23T12:48:20.315Z,102637.08
2019-02-23T12:50:46.316Z,102637.95
2019-02-23T12:53:12.220Z,102645.88
2019-02-23T12:55:38.170Z,102644.12
2019-02-23T12:58:04.137Z,102650.27
2019-02-23T13:00:30.001Z,102657.33
2019-02-23T13:02:55.949Z,102649.79
2019-02-23T13:05:21.948Z,102652.86
2019-02-23T13:07:47.912Z,102652.41
2019-02-23T13:10:14.022Z,102642.70
2019-02-23T13:12:41.797Z,102652.39
2019-02-23T13:15:12.620Z,102650.15
2019-02-23T13:17:52.537Z,102649.72
2019-02-23T13:20:29.869Z,102651.04
2019-02-23T13:23:12.716Z,102652.78
2019-02-23T13:25:46.600Z,102646.16
2019-02-23T13:28:14.630Z,102644.84
2019-02-23T13:30:48.225Z,102643.50
2019-02-23T13:33:16.078Z,102642.17
2019-02-23T13:35:49.659Z,102646.16
2019-02-23T13:38:20.345Z,102649.70
2019-02-23T13:40:53.970Z,102649.28
2019-02-23T13:43:36.749Z,102645.74
2019-02-23T13:46:19.386Z,102644.42
2019-02-23T13:48:47.354Z,102642.22
2019-02-23T13:51:32.004Z,102651.06
2019-02-23T13:54:02.674Z,102649.75
2019-02-23T13:56:30.413Z,102660.34
2019-02-23T13:58:58.212Z,102659.92
2019-02-23T14:01:26.045Z,102657.28
2019-02-23T14:03:53.804Z,102654.20
2019-02-23T14:06:21.601Z,102652.88
2019-02-23T14:09:01.633Z,102658.64
2019-02-23T14:11:35.190Z,102653.34
2019-02-23T14:14:05.805Z,102656.84
2019-02-23T14:16:33.555Z,102654.20
2019-02-23T14:19:04.110Z,102650.23
2019-02-23T14:21:34.754Z,102653.33
2019-02-23T14:24:08.441Z,102650.68
2019-02-23T14:26:36.377Z,102650.21
2019-02-23T14:29:13.195Z,102640.51
2019-02-23T14:31:41.145Z,102638.30
2019-02-23T14:34:08.914Z,102639.19
2019-02-23T14:36:42.596Z,102627.73
2019-02-23T14:39:26.906Z,102630.40
2019-02-23T14:41:54.848Z,102629.11
2019-02-23T14:44:22.763Z,102625.60
2019-02-23T14:47:02.535Z,102613.69
2019-02-23T14:49:36.282Z,102606.62
2019-02-23T14:52:04.312Z,102604.44
2019-02-23T14:54:32.084Z,102605.33
2019-02-23T14:57:16.866Z,102600.08
2019-02-23T14:59:53.824Z,102588.20
2019-02-23T15:02:27.674Z,102586.00
2019-02-23T15:04:55.443Z,102578.08
2019-02-23T15:07:23.211Z,102575.89
2019-02-23T15:09:53.842Z,102563.09
2019-02-23T15:12:30.327Z,102560.45
2019-02-23T15:14:58.250Z,102568.84
2019-02-23T15:17:25.979Z,102567.56
2019-02-23T15:19:56.745Z,102564.53
2019-02-23T15:22:39.495Z,102562.34
2019-02-23T15:25:23.676Z,102558.43
2019-02-23T15:27:57.246Z,102575.64
2019-02-23T15:30:29.739Z,102581.86
2019-02-23T15:33:13.344Z,102596.86
2019-02-23T15:35:41.095Z,102592.45
2019-02-23T15:38:14.791Z,102595.45
2019-02-23T15:40:51.569Z,102587.45
2019-02-23T15:43:19.449Z,102584.27
2019-02-23T15:45:47.246Z,102564.73
2019-02-23T15:48:31.911Z,102563.73
2019-02-23T15:50:57.737Z,102554.73
2019-02-23T15:53:23.649Z,102547.56
2019-02-23T15:55:49.754Z,102560.30
2019-02-23T15:58:15.593Z,102561.96
2019-02-23T16:00:41.695Z,102571.61
2019-02-23T16:03:07.907Z,102549.00
2019-02-23T16:05:33.913Z,102553.80
2019-02-23T16:07:59.843Z,102577.12
2019-02-23T16:10:25.893Z,102570.02
2019-02-23T16:12:51.755Z,102555.39
2019-02-23T16:15:17.724Z,102541.66
2019-02-23T16:17:43.703Z,102553.09
2019-02-23T16:20:09.652Z,102549.97
2019-02-23T16:22:35.509Z,102542.41
2019-02-23T16:25:01.662Z,102534.86
2019-02-23T16:27:27.526Z,102520.23
2019-02-23T16:29:53.391Z,102519.31
2019-02-23T16:32:19.368Z,102525.46
2019-02-23T16:34:45.232Z,102526.32
2019-02-23T16:37:11.117Z,102510.39
2019-02-23T16:39:40.402Z,102512.55
2019-02-23T16:42:05.008Z,102501.89
2019-02-23T16:44:30.886Z,102493.47
2019-02-23T16:46:56.941Z,102479.40
2019-02-23T16:49:22.809Z,102479.27
2019-02-23T16:51:48.650Z,102482.38
2019-02-23T16:54:14.805Z,102469.97
2019-02-23T16:56:41.709Z,102459.33
2019-02-23T16:59:07.584Z,102446.06
2019-02-23T17:01:33.634Z,102442.97
2019-02-23T17:03:59.623Z,102439.02
2019-02-23T17:06:25.487Z,102438.58
2019-02-23T17:08:51.474Z,102433.69
2019-02-23T17:11:17.418Z,102436.76
2019-02-23T17:13:43.274Z,102434.08
2019-02-23T17:16:09.335Z,102431.42
2019-02-23T17:18:35.244Z,102431.84
2019-02-23T17:21:01.112Z,102426.92
2019-02-23T17:23:27.143Z,102428.22
2019-02-23T17:26:03.806Z,102433.06
2019-02-23T17:28:20.795Z,102424.64
2019-02-23T17:30:47.252Z,102422.81
2019-02-23T17:33:13.162Z,102421.92
2019-02-23T17:35:39.035Z,102422.34
2019-02-23T17:38:15.794Z,102425.41
2019-02-23T17:40:32.663Z,102413.44
2019-02-23T17:42:58.521Z,102403.27
2019-02-23T17:45:24.634Z,102408.95
2019-02-23T17:47:50.468Z,102400.56
2019-02-23T17:50:16.347Z,102404.03
2019-02-23T17:52:42.515Z,102401.38
2019-02-23T17:55:08.361Z,102396.05
2019-02-23T17:57:34.201Z,102395.16
2019-02-23T18:00:00.286Z,102348.38
2019-02-23T18:02:26.223Z,102388.05
2019-02-23T18:04:52.128Z,102383.19
2019-02-23T18:07:18.180Z,102388.47
2019-02-23T18:09:44.128Z,102391.53
2019-02-23T18:12:10.003Z,102392.45
2019-02-23T18:14:36.095Z,102383.58
2019-02-23T18:17:01.942Z,102373.40
2019-02-23T18:19:27.846Z,102372.52
2019-02-23T18:21:54.003Z,102368.57
2019-02-23T18:24:19.837Z,102367.25
2019-02-23T18:26:45.690Z,102362.37
2019-02-23T18:29:11.667Z,102377.89
2019-02-23T18:31:37.525Z,102377.91
2019-02-23T18:34:03.430Z,102380.98
2019-02-23T18:36:29.411Z,102374.38
2019-02-23T18:38:55.295Z,102372.64
2019-02-23T18:41:21.379Z,102379.27
2019-02-23T18:43:47.447Z,102377.53
2019-02-23T18:46:13.314Z,102368.78
2019-02-23T18:48:39.149Z,102373.17
2019-02-23T18:51:05.327Z,102359.94
2019-02-23T18:53:31.199Z,102368.81
2019-02-23T18:55:57.086Z,102357.34
2019-02-23T18:58:23.162Z,102348.53
2019-02-23T19:00:48.978Z,102350.86
2019-02-23T19:03:14.859Z,102351.01
2019-02-23T19:05:49.454Z,102353.27
2019-02-23T19:08:08.724Z,102352.39
2019-02-23T19:10:34.584Z,102345.34
2019-02-23T19:13:00.654Z,102351.97
2019-02-23T19:15:26.598Z,102352.92
2019-02-23T19:17:52.565Z,102353.86
2019-02-23T19:20:18.731Z,102357.42
2019-02-23T19:22:44.588Z,102314.20
2019-02-23T19:25:10.569Z,102352.37
2019-02-23T19:27:36.641Z,102365.59
2019-02-23T19:30:03.409Z,102363.96
2019-02-23T19:32:29.281Z,102365.40
2019-02-23T19:34:55.319Z,102370.75
2019-02-23T19:37:21.207Z,102368.16
2019-02-23T19:39:47.096Z,102368.59
2019-02-23T19:42:13.056Z,102362.43
2019-02-23T19:44:38.951Z,102352.80
2019-02-23T19:47:05.428Z,102353.26
2019-02-23T19:49:31.434Z,102358.66
2019-02-23T19:51:57.390Z,102361.46
2019-02-23T19:54:23.248Z,102362.80
2019-02-23T19:56:49.298Z,102357.97
2019-02-23T19:59:15.259Z,102367.72
2019-02-23T20:01:41.135Z,102359.77
2019-02-23T20:04:07.092Z,102371.69
2019-02-23T20:06:32.973Z,102363.77
2019-02-23T20:08:58.909Z,102358.02
2019-02-23T20:11:24.921Z,102367.31
2019-02-23T20:13:51.011Z,102365.58
2019-02-23T20:16:16.898Z,102355.47
2019-02-23T20:18:43.035Z,102349.78
2019-02-23T20:21:08.883Z,102350.24
2019-02-23T20:23:34.765Z,102349.83
2019-02-23T20:26:00.739Z,102351.59
2019-02-23T20:28:26.657Z,102343.64
2019-02-23T20:30:52.504Z,102336.61
2019-02-23T20:33:19.107Z,102335.33
2019-02-23T20:35:45.127Z,102332.23
2019-02-23T20:38:11.085Z,102331.84
2019-02-23T20:40:37.111Z,102331.87
2019-02-23T20:43:02.962Z,102330.57
2019-02-23T20:45:28.820Z,102323.53
2019-02-23T20:47:54.810Z,102324.88
2019-02-23T20:50:22.044Z,102321.78
2019-02-23T20:52:48.288Z,102314.78
2019-02-23T20:55:14.222Z,102308.16
2019-02-23T20:57:40.089Z,102305.13
2019-02-23T21:00:07.077Z,102310.86
2019-02-23T21:02:33.120Z,102307.79
2019-02-23T21:04:58.989Z,102313.94
2019-02-23T21:07:24.900Z,102305.13
2019-02-23T21:09:50.943Z,102301.54
2019-02-23T21:12:16.848Z,102302.84
2019-02-23T21:14:42.693Z,102294.87
2019-02-23T21:17:08.724Z,102301.05
2019-02-23T21:19:34.612Z,102294.90
2019-02-23T21:22:00.602Z,102290.02
2019-02-23T21:24:26.547Z,102297.11
2019-02-23T21:26:52.399Z,102296.64
2019-02-23T21:29:18.276Z,102295.76
2019-02-23T21:31:44.339Z,102301.47
2019-02-23T21:34:12.175Z,102295.70
2019-02-23T21:36:37.890Z,102293.47
2019-02-23T21:39:04.024Z,102296.98
2019-02-23T21:41:29.894Z,102294.34
2019-02-23T21:43:55.767Z,102293.42
2019-02-23T21:46:21.731Z,102294.34
2019-02-23T21:48:47.583Z,102301.39
2019-02-23T21:51:13.493Z,102301.00
2019-02-23T21:53:39.532Z,102296.20
2019-02-23T21:56:05.480Z,102293.98
2019-02-23T21:58:31.399Z,102284.77
2019-02-23T22:00:57.379Z,102280.82
2019-02-23T22:03:23.336Z,102277.78
2019-02-23T22:05:49.204Z,102283.98
2019-02-23T22:08:15.226Z,102281.78
2019-02-23T22:10:41.342Z,102279.57
2019-02-23T22:13:07.256Z,102275.58
2019-02-23T22:15:35.359Z,102281.31
2019-02-23T22:18:01.209Z,102275.09
2019-02-23T22:20:27.062Z,102278.62
2019-02-23T22:22:54.689Z,102277.71
2019-02-23T22:25:20.718Z,102272.86
2019-02-23T22:27:46.601Z,102279.47
2019-02-23T22:30:12.621Z,102277.32
2019-02-23T22:32:38.616Z,102274.23
2019-02-23T22:35:04.669Z,102276.05
2019-02-23T22:37:30.817Z,102275.20
2019-02-23T22:39:56.681Z,102265.55
2019-02-23T22:42:22.663Z,102261.63
2019-02-23T22:44:48.648Z,102264.79
2019-02-23T22:47:14.588Z,102265.25
2019-02-23T22:49:40.466Z,102269.67
2019-02-23T22:52:06.504Z,102266.20
2019-02-23T22:54:32.396Z,102260.05
2019-02-23T22:56:58.248Z,102266.20
2019-02-23T22:59:24.200Z,102271.52
2019-02-23T23:01:50.179Z,102260.94
2019-02-23T23:04:16.133Z,102254.84
2019-02-23T23:06:42.331Z,102266.23
2019-02-23T23:09:10.103Z,102258.75
2019-02-23T23:11:35.968Z,102267.59
2019-02-23T23:14:02.159Z,102263.63
2019-02-23T23:16:28.215Z,102264.48
2019-02-23T23:18:54.194Z,102258.31
2019-02-23T23:21:20.281Z,102265.34
2019-02-23T23:23:46.136Z,102250.78
2019-02-23T23:26:12.029Z,102249.90
2019-02-23T23:28:38.073Z,102245.52
2019-02-23T23:31:04.019Z,102244.63
2019-02-23T23:33:30.081Z,102240.69
2019-02-23T23:35:56.080Z,102238.06
2019-02-23T23:38:21.980Z,102235.44
2019-02-23T23:40:47.833Z,102229.30
2019-02-23T23:43:13.887Z,102223.58
2019-02-23T23:45:39.769Z,102225.83
2019-02-23T23:48:05.633Z,102222.33
2019-02-23T23:50:31.592Z,102208.70
2019-02-23T23:52:57.446Z,102202.10
2019-02-23T23:55:23.323Z,102199.89
2019-02-23T23:57:57.792Z,102202.16
